Alpena, MI (49707)

5:03 AM EDT on August 31, 2015 (GMT -0400)
APRSWXNET | | Change Station
CLOSE
Current Station
Personal Weather Station
Location: Alpena, MI
Elevation: 593 ft
Nearby Weather Stations

Elev 593 ft 45.05 °N, 83.45 °W | Updated 38 minutes ago

Clear
Clear
62 °F
Feels Like 62 °F
N
0
Wind Variable Wind from SW
Gusts 0.0 mph

Today
High -- | Low -- °F
--% Chance of Precip.
Yesterday
High -- | Low -- °F
Precip. -- in
6:54 AM 8:13 PM
Waning Gibbous, 96% visible
Pressure 29.98 in
Visibility 9.0 miles
Clouds Clear
Dew Point 61 °F
Humidity 97%
Rainfall in
Snow Depth Not available.
UV 0 out of 12
Pollen 10.10 out of 12
Air Quality Not available.
Flu Activity Not available.
METAR KAPN 310754Z AUTO VRB03KT 9SM CLR 18/17 A2998 RMK AO2 SLP151 T01780167
Pressure 29.98 in
Visibility 9.0 miles
Clouds Clear
Dew Point 61 °F
Humidity 97%
Rainfall in
Snow Depth Not available.
UV 0 out of 12
Pollen 10.10 out of 12
Air Quality Not available.
Flu Activity Not available.
METAR KAPN 310754Z AUTO VRB03KT 9SM CLR 18/17 A2998 RMK AO2 SLP151 T01780167
Nowcast | as of 5:00 am EDT on August 31, 2015

At 6 am...mostly clear. Patchy fog. Temperature 62. West winds 6 mph. At 8 am...mostly clear. Patchy fog. Temperature 63. West winds 6 mph. At 10 am...mostly clear. Temperature 67. West winds 6 mph. At 12 PM...mostly clear. Temperature 73. Southwest winds 6 mph.

×

10-Day Weather Forecast

×

Almanac

Astronomy

Aug. 31, 2015 Rise Set
Actual Time
Civil Twilight
Nautical Twilight
Astronomical Twilight
Moon
Length of Visible Light
Length of Day
Tomorrow will be .
, % of the Moon is Illuminated

Today's Extremes

State Highs State Lows

Community

WunderPhotos

Upload Photos

1,851,227 photos uploaded!

WunderBlogs® & News

Nearby

Air Quality

  Air Quality AQ Index Pollutant
Not available.

Snow Depth

Station Depth Elevation

Earthquake Activity

City Distance Mag. Time & Date
Minimum magnitude displayed is 2.5.

Coastal Water Temperatures

Place Temperature

Stations

Nearby Weather Stations

Station Location Temp. Windchill Dew Point Humidity Wind Precip. Elev Updated Type